sensor_id;sensor_type;location;lat;lon;timestamp;P1;durP1;ratioP1;P2;durP2;ratioP2
23088;SDS011;11713;48.506;8.966;2022-08-04T00:01:43;3.08;;;2.78;;
23088;SDS011;11713;48.506;8.966;2022-08-04T00:04:14;3.53;;;2.63;;
23088;SDS011;11713;48.506;8.966;2022-08-04T00:06:49;5.30;;;3.03;;
23088;SDS011;11713;48.506;8.966;2022-08-04T00:09:29;4.43;;;2.53;;
23088;SDS011;11713;48.506;8.966;2022-08-04T00:12:12;3.17;;;2.80;;
23088;SDS011;11713;48.506;8.966;2022-08-04T00:14:45;2.80;;;2.60;;
23088;SDS011;11713;48.506;8.966;2022-08-04T00:17:19;3.83;;;2.50;;
23088;SDS011;11713;48.506;8.966;2022-08-04T00:19:52;3.05;;;2.75;;
23088;SDS011;11713;48.506;8.966;2022-08-04T00:22:26;2.90;;;2.60;;
23088;SDS011;11713;48.506;8.966;2022-08-04T00:24:57;4.55;;;2.95;;
23088;SDS011;11713;48.506;8.966;2022-08-04T00:27:27;3.40;;;2.50;;
23088;SDS011;11713;48.506;8.966;2022-08-04T00:29:54;2.75;;;2.55;;
23088;SDS011;11713;48.506;8.966;2022-08-04T00:32:21;3.00;;;2.60;;
23088;SDS011;11713;48.506;8.966;2022-08-04T00:34:47;3.15;;;2.85;;
23088;SDS011;11713;48.506;8.966;2022-08-04T00:37:13;4.22;;;2.83;;
23088;SDS011;11713;48.506;8.966;2022-08-04T00:39:41;3.10;;;2.45;;
23088;SDS011;11713;48.506;8.966;2022-08-04T00:42:25;3.08;;;2.70;;
23088;SDS011;11713;48.506;8.966;2022-08-04T00:50:32;2.90;;;2.70;;
23088;SDS011;11713;48.506;8.966;2022-08-04T00:53:18;3.00;;;2.70;;
23088;SDS011;11713;48.506;8.966;2022-08-04T01:12:33;3.90;;;2.90;;
23088;SDS011;11713;48.506;8.966;2022-08-04T01:15:38;5.90;;;3.28;;
23088;SDS011;11713;48.506;8.966;2022-08-04T01:18:08;3.05;;;2.75;;
23088;SDS011;11713;48.506;8.966;2022-08-04T01:29:14;3.65;;;2.80;;
23088;SDS011;11713;48.506;8.966;2022-08-04T01:34:23;3.63;;;2.80;;
23088;SDS011;11713;48.506;8.966;2022-08-04T01:39:58;4.30;;;2.90;;
23088;SDS011;11713;48.506;8.966;2022-08-04T01:42:26;2.88;;;2.63;;
23088;SDS011;11713;48.506;8.966;2022-08-04T01:44:55;3.03;;;2.75;;
23088;SDS011;11713;48.506;8.966;2022-08-04T01:47:25;4.10;;;3.10;;
23088;SDS011;11713;48.506;8.966;2022-08-04T01:49:54;3.42;;;2.60;;
23088;SDS011;11713;48.506;8.966;2022-08-04T01:52:35;3.10;;;2.90;;
23088;SDS011;11713;48.506;8.966;2022-08-04T01:55:03;3.50;;;3.20;;
23088;SDS011;11713;48.506;8.966;2022-08-04T01:57:33;3.40;;;3.08;;
23088;SDS011;11713;48.506;8.966;2022-08-04T02:00:08;3.47;;;2.88;;
23088;SDS011;11713;48.506;8.966;2022-08-04T02:02:37;3.33;;;2.85;;
23088;SDS011;11713;48.506;8.966;2022-08-04T02:05:03;4.75;;;2.78;;
23088;SDS011;11713;48.506;8.966;2022-08-04T02:10:57;4.93;;;3.25;;
23088;SDS011;11713;48.506;8.966;2022-08-04T02:13:36;4.80;;;3.28;;
23088;SDS011;11713;48.506;8.966;2022-08-04T02:21:22;4.70;;;3.30;;
23088;SDS011;11713;48.506;8.966;2022-08-04T02:23:50;5.38;;;3.08;;
23088;SDS011;11713;48.506;8.966;2022-08-04T02:26:22;4.95;;;3.00;;
23088;SDS011;11713;48.506;8.966;2022-08-04T02:31:26;3.83;;;3.40;;
23088;SDS011;11713;48.506;8.966;2022-08-04T02:34:00;3.78;;;3.10;;
23088;SDS011;11713;48.506;8.966;2022-08-04T02:36:37;4.22;;;3.63;;
23088;SDS011;11713;48.506;8.966;2022-08-04T02:39:05;3.22;;;2.92;;
23088;SDS011;11713;48.506;8.966;2022-08-04T02:41:35;3.25;;;2.95;;
23088;SDS011;11713;48.506;8.966;2022-08-04T02:44:08;3.47;;;3.17;;
23088;SDS011;11713;48.506;8.966;2022-08-04T02:46:35;3.33;;;2.95;;
23088;SDS011;11713;48.506;8.966;2022-08-04T02:49:03;3.95;;;3.22;;
23088;SDS011;11713;48.506;8.966;2022-08-04T02:51:36;4.07;;;2.85;;
23088;SDS011;11713;48.506;8.966;2022-08-04T02:54:06;3.55;;;3.10;;
23088;SDS011;11713;48.506;8.966;2022-08-04T02:56:35;2.92;;;2.72;;
23088;SDS011;11713;48.506;8.966;2022-08-04T02:59:04;3.08;;;2.88;;
23088;SDS011;11713;48.506;8.966;2022-08-04T03:01:31;3.25;;;3.05;;
23088;SDS011;11713;48.506;8.966;2022-08-04T03:04:05;3.10;;;2.90;;
23088;SDS011;11713;48.506;8.966;2022-08-04T04:06:18;4.22;;;3.83;;
23088;SDS011;11713;48.506;8.966;2022-08-04T04:15:02;4.93;;;3.80;;
23088;SDS011;11713;48.506;8.966;2022-08-04T04:20:47;3.95;;;3.53;;
23088;SDS011;11713;48.506;8.966;2022-08-04T04:39:58;3.72;;;3.42;;
23088;SDS011;11713;48.506;8.966;2022-08-04T04:42:53;4.50;;;3.85;;
23088;SDS011;11713;48.506;8.966;2022-08-04T04:48:35;4.53;;;3.38;;
23088;SDS011;11713;48.506;8.966;2022-08-04T04:57:09;5.65;;;3.60;;
23088;SDS011;11713;48.506;8.966;2022-08-04T05:02:30;4.57;;;3.47;;
23088;SDS011;11713;48.506;8.966;2022-08-04T05:14:19;4.30;;;3.95;;
23088;SDS011;11713;48.506;8.966;2022-08-04T05:17:56;4.97;;;3.63;;
23088;SDS011;11713;48.506;8.966;2022-08-04T05:20:02;4.93;;;3.88;;
23088;SDS011;11713;48.506;8.966;2022-08-04T05:22:44;4.10;;;3.60;;
23088;SDS011;11713;48.506;8.966;2022-08-04T05:25:18;4.38;;;3.97;;
23088;SDS011;11713;48.506;8.966;2022-08-04T05:27:49;4.13;;;3.70;;
23088;SDS011;11713;48.506;8.966;2022-08-04T05:30:20;5.03;;;4.22;;
23088;SDS011;11713;48.506;8.966;2022-08-04T05:32:52;5.32;;;3.72;;
23088;SDS011;11713;48.506;8.966;2022-08-04T05:35:42;5.25;;;3.97;;
23088;SDS011;11713;48.506;8.966;2022-08-04T05:38:11;4.30;;;3.63;;
23088;SDS011;11713;48.506;8.966;2022-08-04T05:40:44;3.50;;;3.20;;
23088;SDS011;11713;48.506;8.966;2022-08-04T05:43:11;4.10;;;3.70;;
23088;SDS011;11713;48.506;8.966;2022-08-04T05:45:38;3.70;;;3.40;;
23088;SDS011;11713;48.506;8.966;2022-08-04T05:48:06;4.28;;;3.50;;
23088;SDS011;11713;48.506;8.966;2022-08-04T05:50:34;3.80;;;3.00;;
23088;SDS011;11713;48.506;8.966;2022-08-04T05:53:01;4.00;;;3.30;;
23088;SDS011;11713;48.506;8.966;2022-08-04T05:55:28;3.83;;;3.53;;
23088;SDS011;11713;48.506;8.966;2022-08-04T05:57:55;3.83;;;3.45;;
23088;SDS011;11713;48.506;8.966;2022-08-04T06:00:23;5.10;;;3.17;;
23088;SDS011;11713;48.506;8.966;2022-08-04T06:02:51;3.58;;;3.28;;
23088;SDS011;11713;48.506;8.966;2022-08-04T06:05:18;3.92;;;3.58;;
23088;SDS011;11713;48.506;8.966;2022-08-04T06:07:45;4.40;;;3.75;;
23088;SDS011;11713;48.506;8.966;2022-08-04T06:10:12;7.35;;;3.75;;
23088;SDS011;11713;48.506;8.966;2022-08-04T06:13:12;4.55;;;3.40;;
23088;SDS011;11713;48.506;8.966;2022-08-04T06:15:32;4.32;;;3.35;;
23088;SDS011;11713;48.506;8.966;2022-08-04T06:18:03;6.78;;;3.60;;
23088;SDS011;11713;48.506;8.966;2022-08-04T06:20:32;7.82;;;3.70;;
23088;SDS011;11713;48.506;8.966;2022-08-04T06:23:02;4.25;;;3.40;;
23088;SDS011;11713;48.506;8.966;2022-08-04T06:25:32;3.70;;;3.40;;
23088;SDS011;11713;48.506;8.966;2022-08-04T06:28:04;5.75;;;3.65;;
23088;SDS011;11713;48.506;8.966;2022-08-04T06:30:30;6.60;;;3.50;;
23088;SDS011;11713;48.506;8.966;2022-08-04T06:32:58;4.70;;;3.30;;
23088;SDS011;11713;48.506;8.966;2022-08-04T06:35:27;5.88;;;3.63;;
23088;SDS011;11713;48.506;8.966;2022-08-04T06:37:55;4.43;;;3.63;;
23088;SDS011;11713;48.506;8.966;2022-08-04T06:40:22;4.88;;;3.40;;
23088;SDS011;11713;48.506;8.966;2022-08-04T06:42:49;3.47;;;3.17;;
23088;SDS011;11713;48.506;8.966;2022-08-04T06:45:16;3.45;;;3.17;;
23088;SDS011;11713;48.506;8.966;2022-08-04T06:47:44;3.65;;;3.35;;
23088;SDS011;11713;48.506;8.966;2022-08-04T06:50:11;4.90;;;3.22;;
23088;SDS011;11713;48.506;8.966;2022-08-04T06:52:38;3.63;;;3.25;;
23088;SDS011;11713;48.506;8.966;2022-08-04T06:55:05;3.53;;;3.22;;
23088;SDS011;11713;48.506;8.966;2022-08-04T06:57:32;3.78;;;3.38;;
23088;SDS011;11713;48.506;8.966;2022-08-04T07:00:00;5.28;;;3.60;;
23088;SDS011;11713;48.506;8.966;2022-08-04T07:02:32;3.70;;;3.40;;
23088;SDS011;11713;48.506;8.966;2022-08-04T07:05:04;3.75;;;3.45;;
23088;SDS011;11713;48.506;8.966;2022-08-04T07:07:31;4.43;;;3.22;;
23088;SDS011;11713;48.506;8.966;2022-08-04T07:09:59;3.25;;;3.05;;
23088;SDS011;11713;48.506;8.966;2022-08-04T07:12:26;5.07;;;3.65;;
23088;SDS011;11713;48.506;8.966;2022-08-04T07:14:52;5.80;;;3.03;;
23088;SDS011;11713;48.506;8.966;2022-08-04T07:17:19;3.40;;;3.10;;
23088;SDS011;11713;48.506;8.966;2022-08-04T07:19:46;3.38;;;3.08;;
23088;SDS011;11713;48.506;8.966;2022-08-04T07:22:13;3.35;;;3.00;;
23088;SDS011;11713;48.506;8.966;2022-08-04T07:24:41;3.53;;;3.00;;
23088;SDS011;11713;48.506;8.966;2022-08-04T07:27:08;3.20;;;3.00;;
23088;SDS011;11713;48.506;8.966;2022-08-04T07:29:35;3.08;;;2.78;;
23088;SDS011;11713;48.506;8.966;2022-08-04T07:32:12;3.33;;;3.05;;
23088;SDS011;11713;48.506;8.966;2022-08-04T07:34:43;4.45;;;2.90;;
23088;SDS011;11713;48.506;8.966;2022-08-04T07:37:11;4.93;;;2.92;;
23088;SDS011;11713;48.506;8.966;2022-08-04T07:39:40;3.20;;;2.95;;
23088;SDS011;11713;48.506;8.966;2022-08-04T07:42:07;3.15;;;2.88;;
23088;SDS011;11713;48.506;8.966;2022-08-04T07:47:15;2.83;;;2.63;;
23088;SDS011;11713;48.506;8.966;2022-08-04T07:49:41;5.68;;;2.92;;
23088;SDS011;11713;48.506;8.966;2022-08-04T07:52:24;3.90;;;3.10;;
23088;SDS011;11713;48.506;8.966;2022-08-04T07:54:53;3.50;;;2.90;;
23088;SDS011;11713;48.506;8.966;2022-08-04T07:57:32;4.65;;;2.80;;
23088;SDS011;11713;48.506;8.966;2022-08-04T08:00:11;2.80;;;2.58;;
23088;SDS011;11713;48.506;8.966;2022-08-04T08:02:47;4.10;;;2.65;;
23088;SDS011;11713;48.506;8.966;2022-08-04T08:05:43;3.00;;;2.65;;
23088;SDS011;11713;48.506;8.966;2022-08-04T08:08:09;2.80;;;2.60;;
23088;SDS011;11713;48.506;8.966;2022-08-04T08:10:39;3.47;;;2.53;;
23088;SDS011;11713;48.506;8.966;2022-08-04T08:13:14;3.03;;;2.50;;
23088;SDS011;11713;48.506;8.966;2022-08-04T08:21:11;2.55;;;2.35;;
23088;SDS011;11713;48.506;8.966;2022-08-04T08:23:56;4.65;;;2.70;;
23088;SDS011;11713;48.506;8.966;2022-08-04T08:26:24;3.38;;;2.60;;
23088;SDS011;11713;48.506;8.966;2022-08-04T08:28:55;2.45;;;2.33;;
23088;SDS011;11713;48.506;8.966;2022-08-04T08:31:21;3.78;;;2.72;;
23088;SDS011;11713;48.506;8.966;2022-08-04T08:33:50;4.53;;;2.40;;
23088;SDS011;11713;48.506;8.966;2022-08-04T08:36:22;5.70;;;2.58;;
23088;SDS011;11713;48.506;8.966;2022-08-04T08:39:15;2.80;;;2.40;;
23088;SDS011;11713;48.506;8.966;2022-08-04T08:41:54;3.50;;;2.65;;
23088;SDS011;11713;48.506;8.966;2022-08-04T08:50:51;5.18;;;2.67;;
23088;SDS011;11713;48.506;8.966;2022-08-04T08:53:49;2.67;;;2.40;;
23088;SDS011;11713;48.506;8.966;2022-08-04T09:10:50;4.45;;;2.75;;
23088;SDS011;11713;48.506;8.966;2022-08-04T09:16:21;4.30;;;2.85;;
23088;SDS011;11713;48.506;8.966;2022-08-04T09:19:14;3.45;;;2.80;;
23088;SDS011;11713;48.506;8.966;2022-08-04T09:25:16;2.88;;;2.67;;
23088;SDS011;11713;48.506;8.966;2022-08-04T09:28:23;5.10;;;2.95;;
23088;SDS011;11713;48.506;8.966;2022-08-04T09:31:02;5.10;;;2.80;;
23088;SDS011;11713;48.506;8.966;2022-08-04T09:36:46;4.63;;;2.55;;
23088;SDS011;11713;48.506;8.966;2022-08-04T09:39:39;2.58;;;2.38;;
23088;SDS011;11713;48.506;8.966;2022-08-04T09:42:19;4.00;;;2.60;;
23088;SDS011;11713;48.506;8.966;2022-08-04T09:45:15;6.30;;;2.65;;
23088;SDS011;11713;48.506;8.966;2022-08-04T09:50:38;2.67;;;2.47;;
23088;SDS011;11713;48.506;8.966;2022-08-04T09:53:24;2.28;;;2.17;;
23088;SDS011;11713;48.506;8.966;2022-08-04T09:56:19;2.67;;;2.10;;
23088;SDS011;11713;48.506;8.966;2022-08-04T10:02:38;3.95;;;2.60;;
23088;SDS011;11713;48.506;8.966;2022-08-04T10:05:13;2.78;;;2.00;;
23088;SDS011;11713;48.506;8.966;2022-08-04T10:22:36;2.45;;;1.90;;
23088;SDS011;11713;48.506;8.966;2022-08-04T10:27:37;2.05;;;1.85;;
23088;SDS011;11713;48.506;8.966;2022-08-04T10:30:16;2.17;;;1.70;;
23088;SDS011;11713;48.506;8.966;2022-08-04T10:35:37;1.80;;;1.63;;
23088;SDS011;11713;48.506;8.966;2022-08-04T10:38:27;2.65;;;1.90;;
23088;SDS011;11713;48.506;8.966;2022-08-04T10:47:03;2.90;;;2.40;;
23088;SDS011;11713;48.506;8.966;2022-08-04T10:49:44;2.22;;;2.05;;
23088;SDS011;11713;48.506;8.966;2022-08-04T10:52:31;3.33;;;2.10;;
23088;SDS011;11713;48.506;8.966;2022-08-04T10:55:19;4.00;;;2.15;;
23088;SDS011;11713;48.506;8.966;2022-08-04T10:57:56;2.50;;;2.28;;
23088;SDS011;11713;48.506;8.966;2022-08-04T11:00:30;2.75;;;2.22;;
23088;SDS011;11713;48.506;8.966;2022-08-04T11:03:06;2.40;;;2.20;;
23088;SDS011;11713;48.506;8.966;2022-08-04T11:05:52;5.00;;;2.40;;
23088;SDS011;11713;48.506;8.966;2022-08-04T11:11:06;2.72;;;2.40;;
23088;SDS011;11713;48.506;8.966;2022-08-04T11:13:37;4.72;;;2.08;;
23088;SDS011;11713;48.506;8.966;2022-08-04T11:16:15;2.40;;;2.20;;
23088;SDS011;11713;48.506;8.966;2022-08-04T11:21:32;3.28;;;2.15;;
23088;SDS011;11713;48.506;8.966;2022-08-04T11:24:05;2.08;;;1.98;;
23088;SDS011;11713;48.506;8.966;2022-08-04T11:32:05;3.05;;;2.13;;
23088;SDS011;11713;48.506;8.966;2022-08-04T11:34:37;2.40;;;2.20;;
23088;SDS011;11713;48.506;8.966;2022-08-04T11:40:15;2.42;;;2.22;;
23088;SDS011;11713;48.506;8.966;2022-08-04T11:42:59;2.10;;;2.00;;
23088;SDS011;11713;48.506;8.966;2022-08-04T11:45:44;3.88;;;2.20;;
23088;SDS011;11713;48.506;8.966;2022-08-04T11:48:18;6.78;;;2.40;;
23088;SDS011;11713;48.506;8.966;2022-08-04T11:50:50;5.00;;;2.30;;
23088;SDS011;11713;48.506;8.966;2022-08-04T11:53:20;2.92;;;2.50;;
23088;SDS011;11713;48.506;8.966;2022-08-04T11:55:49;3.65;;;2.03;;
23088;SDS011;11713;48.506;8.966;2022-08-04T11:58:18;6.47;;;2.30;;
23088;SDS011;11713;48.506;8.966;2022-08-04T12:00:54;2.38;;;2.28;;
23088;SDS011;11713;48.506;8.966;2022-08-04T12:09:51;2.33;;;2.13;;
23088;SDS011;11713;48.506;8.966;2022-08-04T12:12:27;3.10;;;2.20;;
23088;SDS011;11713;48.506;8.966;2022-08-04T12:20:46;2.38;;;2.10;;
23088;SDS011;11713;48.506;8.966;2022-08-04T12:23:37;2.97;;;2.20;;
23088;SDS011;11713;48.506;8.966;2022-08-04T12:26:08;4.32;;;2.17;;
23088;SDS011;11713;48.506;8.966;2022-08-04T12:28:43;4.13;;;2.00;;
23088;SDS011;11713;48.506;8.966;2022-08-04T12:31:18;3.80;;;2.15;;
23088;SDS011;11713;48.506;8.966;2022-08-04T12:33:59;2.60;;;2.40;;
23088;SDS011;11713;48.506;8.966;2022-08-04T12:39:37;2.78;;;2.30;;
23088;SDS011;11713;48.506;8.966;2022-08-04T12:44:53;2.40;;;2.20;;
23088;SDS011;11713;48.506;8.966;2022-08-04T12:47:24;2.95;;;2.35;;
23088;SDS011;11713;48.506;8.966;2022-08-04T12:50:00;4.45;;;2.42;;
23088;SDS011;11713;48.506;8.966;2022-08-04T12:52:33;2.45;;;2.30;;
23088;SDS011;11713;48.506;8.966;2022-08-04T12:55:09;3.17;;;2.40;;
23088;SDS011;11713;48.506;8.966;2022-08-04T12:57:39;2.55;;;2.28;;
23088;SDS011;11713;48.506;8.966;2022-08-04T13:03:46;2.70;;;2.50;;
23088;SDS011;11713;48.506;8.966;2022-08-04T13:06:22;2.78;;;2.10;;
23088;SDS011;11713;48.506;8.966;2022-08-04T13:09:20;3.65;;;2.00;;
23088;SDS011;11713;48.506;8.966;2022-08-04T13:11:53;2.63;;;2.38;;
23088;SDS011;11713;48.506;8.966;2022-08-04T13:14:23;2.55;;;2.10;;
23088;SDS011;11713;48.506;8.966;2022-08-04T13:16:58;1.95;;;1.85;;
23088;SDS011;11713;48.506;8.966;2022-08-04T13:19:25;3.10;;;2.08;;
23088;SDS011;11713;48.506;8.966;2022-08-04T13:21:54;2.33;;;2.00;;
23088;SDS011;11713;48.506;8.966;2022-08-04T13:24:23;3.47;;;2.17;;
23088;SDS011;11713;48.506;8.966;2022-08-04T13:26:57;2.22;;;2.13;;
23088;SDS011;11713;48.506;8.966;2022-08-04T13:32:06;2.33;;;2.22;;
23088;SDS011;11713;48.506;8.966;2022-08-04T13:34:33;2.10;;;2.00;;
23088;SDS011;11713;48.506;8.966;2022-08-04T13:37:03;2.38;;;2.17;;
23088;SDS011;11713;48.506;8.966;2022-08-04T13:39:31;3.65;;;2.05;;
23088;SDS011;11713;48.506;8.966;2022-08-04T13:42:00;3.35;;;2.00;;
23088;SDS011;11713;48.506;8.966;2022-08-04T13:44:30;2.25;;;2.08;;
23088;SDS011;11713;48.506;8.966;2022-08-04T13:47:02;5.15;;;2.15;;
23088;SDS011;11713;48.506;8.966;2022-08-04T13:49:31;2.10;;;2.00;;
23088;SDS011;11713;48.506;8.966;2022-08-04T13:51:59;5.93;;;2.20;;
23088;SDS011;11713;48.506;8.966;2022-08-04T13:57:15;3.47;;;2.28;;
23088;SDS011;11713;48.506;8.966;2022-08-04T13:59:51;4.22;;;2.50;;
23088;SDS011;11713;48.506;8.966;2022-08-04T14:02:33;2.50;;;2.30;;
23088;SDS011;11713;48.506;8.966;2022-08-04T14:05:07;2.40;;;2.13;;
23088;SDS011;11713;48.506;8.966;2022-08-04T14:07:41;2.60;;;2.28;;
23088;SDS011;11713;48.506;8.966;2022-08-04T14:10:15;2.67;;;1.98;;
23088;SDS011;11713;48.506;8.966;2022-08-04T14:12:46;3.50;;;2.20;;
23088;SDS011;11713;48.506;8.966;2022-08-04T14:18:16;2.35;;;2.20;;
23088;SDS011;11713;48.506;8.966;2022-08-04T14:28:40;3.50;;;2.28;;
23088;SDS011;11713;48.506;8.966;2022-08-04T14:33:49;1.95;;;1.85;;
23088;SDS011;11713;48.506;8.966;2022-08-04T14:36:17;2.45;;;2.25;;
23088;SDS011;11713;48.506;8.966;2022-08-04T14:38:54;3.53;;;2.40;;
23088;SDS011;11713;48.506;8.966;2022-08-04T14:41:26;2.58;;;2.38;;
23088;SDS011;11713;48.506;8.966;2022-08-04T14:43:58;1.92;;;1.70;;
23088;SDS011;11713;48.506;8.966;2022-08-04T14:46:29;3.25;;;2.20;;
23088;SDS011;11713;48.506;8.966;2022-08-04T14:49:10;2.80;;;2.10;;
23088;SDS011;11713;48.506;8.966;2022-08-04T14:51:44;2.00;;;1.90;;
23088;SDS011;11713;48.506;8.966;2022-08-04T14:54:25;3.60;;;2.25;;
23088;SDS011;11713;48.506;8.966;2022-08-04T14:56:54;4.60;;;2.05;;
23088;SDS011;11713;48.506;8.966;2022-08-04T14:59:25;2.00;;;1.90;;
23088;SDS011;11713;48.506;8.966;2022-08-04T15:01:51;2.90;;;2.30;;
23088;SDS011;11713;48.506;8.966;2022-08-04T15:04:23;3.30;;;2.10;;
23088;SDS011;11713;48.506;8.966;2022-08-04T15:06:51;3.25;;;2.08;;
23088;SDS011;11713;48.506;8.966;2022-08-04T15:09:19;2.80;;;2.35;;
23088;SDS011;11713;48.506;8.966;2022-08-04T15:11:47;3.90;;;2.50;;
23088;SDS011;11713;48.506;8.966;2022-08-04T15:14:13;3.88;;;2.30;;
23088;SDS011;11713;48.506;8.966;2022-08-04T15:16:40;3.97;;;2.00;;
23088;SDS011;11713;48.506;8.966;2022-08-04T15:19:06;2.33;;;2.10;;
23088;SDS011;11713;48.506;8.966;2022-08-04T15:21:33;5.10;;;2.60;;
23088;SDS011;11713;48.506;8.966;2022-08-04T15:24:02;2.70;;;2.50;;
23088;SDS011;11713;48.506;8.966;2022-08-04T15:26:41;3.42;;;2.28;;
23088;SDS011;11713;48.506;8.966;2022-08-04T15:29:15;3.25;;;2.90;;
23088;SDS011;11713;48.506;8.966;2022-08-04T15:34:47;2.88;;;2.30;;
23088;SDS011;11713;48.506;8.966;2022-08-04T15:40:37;5.03;;;2.40;;
23088;SDS011;11713;48.506;8.966;2022-08-04T15:46:17;2.45;;;2.30;;
23088;SDS011;11713;48.506;8.966;2022-08-04T15:49:18;3.13;;;2.22;;
23088;SDS011;11713;48.506;8.966;2022-08-04T15:54:26;2.13;;;2.03;;
23088;SDS011;11713;48.506;8.966;2022-08-04T15:56:54;2.47;;;2.30;;
23088;SDS011;11713;48.506;8.966;2022-08-04T16:00:06;2.70;;;2.38;;
23088;SDS011;11713;48.506;8.966;2022-08-04T16:02:34;3.15;;;2.40;;
23088;SDS011;11713;48.506;8.966;2022-08-04T16:13:05;3.35;;;2.67;;
23088;SDS011;11713;48.506;8.966;2022-08-04T16:15:41;2.65;;;2.38;;
23088;SDS011;11713;48.506;8.966;2022-08-04T16:21:02;3.53;;;3.03;;
23088;SDS011;11713;48.506;8.966;2022-08-04T16:34:43;3.10;;;2.50;;
23088;SDS011;11713;48.506;8.966;2022-08-04T16:37:21;4.85;;;2.60;;
23088;SDS011;11713;48.506;8.966;2022-08-04T16:39:49;4.22;;;2.63;;
23088;SDS011;11713;48.506;8.966;2022-08-04T16:42:49;3.05;;;2.58;;
23088;SDS011;11713;48.506;8.966;2022-08-04T16:45:15;2.65;;;2.45;;
23088;SDS011;11713;48.506;8.966;2022-08-04T16:50:14;2.85;;;2.58;;
23088;SDS011;11713;48.506;8.966;2022-08-04T16:52:44;2.70;;;2.50;;
23088;SDS011;11713;48.506;8.966;2022-08-04T16:55:11;2.80;;;2.42;;
23088;SDS011;11713;48.506;8.966;2022-08-04T16:57:40;3.65;;;2.10;;
23088;SDS011;11713;48.506;8.966;2022-08-04T17:00:10;2.83;;;2.33;;
23088;SDS011;11713;48.506;8.966;2022-08-04T17:02:36;2.70;;;2.50;;
23088;SDS011;11713;48.506;8.966;2022-08-04T17:05:02;3.10;;;2.45;;
23088;SDS011;11713;48.506;8.966;2022-08-04T17:07:28;2.50;;;2.30;;
23088;SDS011;11713;48.506;8.966;2022-08-04T17:10:14;4.72;;;2.42;;
23088;SDS011;11713;48.506;8.966;2022-08-04T17:12:40;4.07;;;2.58;;
23088;SDS011;11713;48.506;8.966;2022-08-04T17:15:19;3.58;;;2.80;;
23088;SDS011;11713;48.506;8.966;2022-08-04T17:17:46;3.03;;;2.10;;
23088;SDS011;11713;48.506;8.966;2022-08-04T17:20:14;2.67;;;2.22;;
23088;SDS011;11713;48.506;8.966;2022-08-04T17:22:40;4.22;;;2.80;;
23088;SDS011;11713;48.506;8.966;2022-08-04T17:25:06;4.00;;;2.70;;
23088;SDS011;11713;48.506;8.966;2022-08-04T17:27:32;3.20;;;2.42;;
23088;SDS011;11713;48.506;8.966;2022-08-04T17:29:59;3.05;;;2.20;;
23088;SDS011;11713;48.506;8.966;2022-08-04T17:32:25;3.45;;;2.70;;
23088;SDS011;11713;48.506;8.966;2022-08-04T17:34:52;2.67;;;2.47;;
23088;SDS011;11713;48.506;8.966;2022-08-04T17:37:20;3.05;;;2.50;;
23088;SDS011;11713;48.506;8.966;2022-08-04T17:39:51;3.75;;;2.58;;
23088;SDS011;11713;48.506;8.966;2022-08-04T17:42:33;2.67;;;2.47;;
23088;SDS011;11713;48.506;8.966;2022-08-04T17:45:14;4.15;;;2.53;;
23088;SDS011;11713;48.506;8.966;2022-08-04T17:47:48;2.63;;;2.42;;
23088;SDS011;11713;48.506;8.966;2022-08-04T17:50:25;2.90;;;2.70;;
23088;SDS011;11713;48.506;8.966;2022-08-04T17:53:04;2.60;;;2.40;;
23088;SDS011;11713;48.506;8.966;2022-08-04T17:55:44;2.58;;;2.38;;
23088;SDS011;11713;48.506;8.966;2022-08-04T17:58:12;2.67;;;2.40;;
23088;SDS011;11713;48.506;8.966;2022-08-04T18:00:40;2.92;;;2.70;;
23088;SDS011;11713;48.506;8.966;2022-08-04T18:03:05;2.53;;;2.35;;
23088;SDS011;11713;48.506;8.966;2022-08-04T18:05:31;2.85;;;2.50;;
23088;SDS011;11713;48.506;8.966;2022-08-04T18:08:05;2.50;;;2.30;;
23088;SDS011;11713;48.506;8.966;2022-08-04T18:10:41;2.63;;;2.30;;
23088;SDS011;11713;48.506;8.966;2022-08-04T18:13:08;2.55;;;2.35;;
23088;SDS011;11713;48.506;8.966;2022-08-04T18:15:34;3.45;;;2.60;;
23088;SDS011;11713;48.506;8.966;2022-08-04T18:18:21;2.58;;;2.38;;
23088;SDS011;11713;48.506;8.966;2022-08-04T18:20:47;2.60;;;2.33;;
23088;SDS011;11713;48.506;8.966;2022-08-04T18:23:13;2.85;;;2.65;;
23088;SDS011;11713;48.506;8.966;2022-08-04T18:25:43;3.63;;;2.92;;
23088;SDS011;11713;48.506;8.966;2022-08-04T18:28:20;2.88;;;2.67;;
23088;SDS011;11713;48.506;8.966;2022-08-04T18:30:49;3.00;;;2.80;;
23088;SDS011;11713;48.506;8.966;2022-08-04T18:33:15;3.00;;;2.80;;
23088;SDS011;11713;48.506;8.966;2022-08-04T18:35:40;2.38;;;2.28;;
23088;SDS011;11713;48.506;8.966;2022-08-04T18:38:06;3.47;;;2.38;;
23088;SDS011;11713;48.506;8.966;2022-08-04T18:40:32;4.80;;;2.70;;
23088;SDS011;11713;48.506;8.966;2022-08-04T18:42:58;3.15;;;2.72;;
23088;SDS011;11713;48.506;8.966;2022-08-04T18:45:24;5.70;;;2.78;;
23088;SDS011;11713;48.506;8.966;2022-08-04T18:47:50;4.32;;;2.65;;
23088;SDS011;11713;48.506;8.966;2022-08-04T18:50:16;4.60;;;2.78;;
23088;SDS011;11713;48.506;8.966;2022-08-04T18:52:42;4.38;;;2.53;;
23088;SDS011;11713;48.506;8.966;2022-08-04T18:55:08;4.50;;;2.90;;
23088;SDS011;11713;48.506;8.966;2022-08-04T18:57:34;4.57;;;2.83;;
23088;SDS011;11713;48.506;8.966;2022-08-04T19:00:00;5.20;;;2.88;;
23088;SDS011;11713;48.506;8.966;2022-08-04T19:02:26;6.55;;;2.92;;
23088;SDS011;11713;48.506;8.966;2022-08-04T19:04:52;3.05;;;2.75;;
23088;SDS011;11713;48.506;8.966;2022-08-04T19:07:18;3.10;;;2.60;;
23088;SDS011;11713;48.506;8.966;2022-08-04T19:09:44;4.50;;;3.17;;
23088;SDS011;11713;48.506;8.966;2022-08-04T19:12:10;3.25;;;2.85;;
23088;SDS011;11713;48.506;8.966;2022-08-04T19:14:37;3.88;;;2.70;;
23088;SDS011;11713;48.506;8.966;2022-08-04T19:17:03;8.05;;;3.05;;
23088;SDS011;11713;48.506;8.966;2022-08-04T19:19:29;7.47;;;2.97;;
23088;SDS011;11713;48.506;8.966;2022-08-04T19:21:55;8.27;;;3.20;;
23088;SDS011;11713;48.506;8.966;2022-08-04T19:24:21;3.55;;;2.80;;
23088;SDS011;11713;48.506;8.966;2022-08-04T19:26:47;5.78;;;3.10;;
23088;SDS011;11713;48.506;8.966;2022-08-04T19:29:13;6.35;;;3.03;;
23088;SDS011;11713;48.506;8.966;2022-08-04T19:31:40;4.72;;;2.78;;
23088;SDS011;11713;48.506;8.966;2022-08-04T19:34:06;5.78;;;2.78;;
23088;SDS011;11713;48.506;8.966;2022-08-04T19:36:33;5.97;;;3.00;;
23088;SDS011;11713;48.506;8.966;2022-08-04T19:39:00;6.20;;;2.80;;
23088;SDS011;11713;48.506;8.966;2022-08-04T19:41:29;4.88;;;2.85;;
23088;SDS011;11713;48.506;8.966;2022-08-04T19:44:00;4.07;;;2.83;;
23088;SDS011;11713;48.506;8.966;2022-08-04T19:46:30;4.22;;;2.92;;
23088;SDS011;11713;48.506;8.966;2022-08-04T19:48:56;4.50;;;2.67;;
23088;SDS011;11713;48.506;8.966;2022-08-04T19:51:23;4.25;;;2.63;;
23088;SDS011;11713;48.506;8.966;2022-08-04T19:53:49;4.07;;;2.92;;
23088;SDS011;11713;48.506;8.966;2022-08-04T19:56:15;6.70;;;3.28;;
23088;SDS011;11713;48.506;8.966;2022-08-04T19:58:43;8.90;;;2.72;;
23088;SDS011;11713;48.506;8.966;2022-08-04T20:01:11;4.63;;;2.90;;
23088;SDS011;11713;48.506;8.966;2022-08-04T20:03:37;9.13;;;3.15;;
23088;SDS011;11713;48.506;8.966;2022-08-04T20:06:06;4.40;;;2.95;;
23088;SDS011;11713;48.506;8.966;2022-08-04T20:08:32;4.18;;;2.85;;
23088;SDS011;11713;48.506;8.966;2022-08-04T20:10:58;6.47;;;3.13;;
23088;SDS011;11713;48.506;8.966;2022-08-04T20:13:25;9.75;;;3.22;;
23088;SDS011;11713;48.506;8.966;2022-08-04T20:15:51;10.38;;;3.47;;
23088;SDS011;11713;48.506;8.966;2022-08-04T20:18:18;10.63;;;3.47;;
23088;SDS011;11713;48.506;8.966;2022-08-04T20:20:44;6.95;;;3.25;;
23088;SDS011;11713;48.506;8.966;2022-08-04T20:23:10;5.35;;;3.20;;
23088;SDS011;11713;48.506;8.966;2022-08-04T20:25:36;7.47;;;3.35;;
23088;SDS011;11713;48.506;8.966;2022-08-04T20:28:04;9.20;;;3.38;;
23088;SDS011;11713;48.506;8.966;2022-08-04T20:30:34;8.45;;;3.28;;
23088;SDS011;11713;48.506;8.966;2022-08-04T20:33:01;5.82;;;3.60;;
23088;SDS011;11713;48.506;8.966;2022-08-04T20:35:27;8.32;;;3.40;;